Happy Valentine's Day! 

Flight Track Log - Related Links

Times and Time Zones

All times are in EDT time to prevent confusion due to time zone crossing. See the AWI3551 flight status page for this flight to view local times or setup timezone preferences in your user account.


Time Position Orientation Groundspeed Altitude Reporting Facility
EDT Latitude Longitude Course Direction KTS MPH feet Rate Location/Type
Sat 08:01:42 AM 42.7714 -73.8092 172° South 154 177 1,400  Level Boston Center
Sat 08:02:06 AM 42.7903 -73.8122 353° North 177 204 1,900 1,747 Climbing Boston Center
Sat 08:03:01 AM 42.8122 -73.8806 294° West 232 267 3,700 1,608 Climbing Boston Center
Sat 08:03:43 AM 42.8222 -73.9206 289° West 260 299 4,500 2,471 Climbing Boston Center
Sat 08:04:00 AM 42.5465 -73.9820 171° South  Level Estimated
Sat 08:04:43 AM 42.8456 -74.0344 286° West 268 308 7,900  Level Boston Center
Sat 08:05:00 AM 42.4949 -73.8978 130° Southeast  Level FlightAware Approximate
Sat 08:05:43 AM 42.8589 -74.1253 281° West 256 295 10,500  Level Boston Center
Sat 08:06:00 AM 42.4281 -73.9593 180° South  Level Estimated
Sat 08:06:43 AM 42.8117 -74.2119 233° Southwest 250 288 12,100  Level Boston Center
Sat 08:07:00 AM 42.3613 -74.0206 172° South  Level Estimated
Sat 08:07:43 AM 42.7189 -74.1611 158° South 259 298 13,700  Level Boston Center
Sat 08:08:43 AM 42.6278 -74.1161 160° South 332 382 15,900 1,955 Climbing Boston Center
Sat 08:09:55 AM 42.5325 -74.0769 163° South 365 420 18,000 1,455 Climbing Boston Center
Sat 08:10:55 AM 42.4181 -74.0572 173° South 372 428 19,100 1,350 Climbing Boston Center
Sat 08:11:55 AM 42.3119 -74.0347 171° South 377 434 20,700 1,550 Climbing Boston Center
Sat 08:12:55 AM 42.1875 -74.0092 171° South 400 460 22,200 1,350 Climbing Boston Center
Sat 08:13:55 AM 42.0750 -74.0008 177° South 407 468 23,400 1,150 Climbing Boston Center
Sat 08:14:55 AM 41.9703 -74.0317 192° South 393 452 24,500 1,050 Climbing Boston Center
Sat 08:15:55 AM 41.8614 -74.0681 194° South 398 458 25,500 750 Climbing Boston Center
Sat 08:16:55 AM 41.7547 -74.0958 191° South 398 458 26,000 160 Climbing Boston Center
Sat 08:19:03 AM 41.5167 -74.1706 193° South 428 493 26,000  Level New York Center
Sat 08:20:04 AM 41.4128 -74.2317 204° Southwest 422 486 26,000  Level New York Center
Sat 08:21:03 AM 41.3067 -74.2981 205° Southwest 415 478 26,000  Level New York Center
Sat 08:22:03 AM 41.2028 -74.3614 205° Southwest 415 478 26,000  Level New York Center
Sat 08:23:05 AM 41.1011 -74.4194 203° Southwest 410 472 26,000  Level New York Center
Sat 08:24:05 AM 41.0056 -74.4803 206° Southwest 399 459 26,000  Level New York Center
Sat 08:25:05 AM 40.9119 -74.5411 206° Southwest 386 444 26,000  Level New York Center
Sat 08:26:04 AM 40.8269 -74.5939 205° Southwest 381 438 26,000 -400 Level New York Center
Sat 08:27:05 AM 40.7383 -74.6903 220° Southwest 355 409 25,200 -900 Descending New York Center
Sat 08:28:04 AM 40.6747 -74.7825 228° Southwest 348 400 24,200 -1,008 Descending New York Center
Sat 08:29:04 AM 40.6111 -74.8769 228° Southwest 348 400 23,200 -1,059 Descending New York Center
Sat 08:30:03 AM 40.5617 -74.9753 237° Southwest 342 394 22,100 -1,100 Descending New York Center
Sat 08:31:04 AM 40.5144 -75.0761 238° Southwest 330 380 21,000 -1,033 Descending New York Center
Sat 08:32:05 AM 40.4692 -75.1742 239° Southwest 324 373 20,000 -496 Descending New York Center
Sat 08:33:05 AM 40.4236 -75.2747 239° Southwest 324 373 20,000  Level New York Center
Sat 08:34:03 AM 40.3367 -75.3128 198° South 310 357 20,000  Level New York Center
Sat 08:35:04 AM 40.2475 -75.3558 200° South 317 365 20,000  Level New York Center
Sat 08:36:04 AM 40.1758 -75.4272 217° Southwest 328 377 20,000  Level New York Center
Sat 08:37:03 AM 40.0978 -75.5006 216° Southwest 339 390 20,000  Level New York Center
Sat 08:38:03 AM 40.0261 -75.5717 217° Southwest 339 390 20,000  Level New York Center
Sat 08:39:03 AM 39.9525 -75.6425 216° Southwest 339 390 20,000  Level New York Center
Sat 08:40:05 AM 39.8903 -75.7300 227° Southwest 332 382 20,000  Level New York Center
Sat 08:41:05 AM 39.8381 -75.8319 236° Southwest 337 388 20,000  Level New York Center
Sat 08:42:03 AM 39.7814 -75.9358 235° Southwest 350 403 20,000 -252 Level New York Center
Sat 08:43:04 AM 39.7247 -76.0397 235° Southwest 355 409 19,500 -1,033 Descending New York Center
Sat 08:44:05 AM 39.6678 -76.1461 235° Southwest 362 417 17,900 -1,747 Descending New York Center
Sat 08:45:42 AM 39.5833 -76.3167 237° Southwest 337 388 14,900 -1,788 Descending Potomac TRACON
Sat 08:46:36 AM 39.5167 -76.3667 210° Southwest 344 396 13,400 -1,450 Descending Potomac TRACON
Sat 08:47:42 AM 39.4167 -76.4500 213° Southwest 318 366 12,000 -700 Descending Potomac TRACON
Sat 08:48:36 AM 39.3667 -76.5000 218° Southwest 307 353 12,000 -278 Level Potomac TRACON
Sat 08:49:30 AM 39.3000 -76.5500 210° Southwest 284 327 11,500 -684 Descending Potomac TRACON
Sat 08:50:30 AM 39.2333 -76.6167 218° Southwest 281 323 10,700 -700 Descending Potomac TRACON
Sat 08:51:30 AM 39.1667 -76.6500 201° Southwest 281 323 10,100 -350 Descending Potomac TRACON
Sat 08:52:30 AM 39.1833 -76.7500 282° West 329 379 10,000 -50 Descending Potomac TRACON
Sat 08:53:30 AM 39.2667 -76.7667 351° North 292 336 10,000  Level Potomac TRACON
Sat 08:54:30 AM 39.3167 -76.7000 46° Northeast 317 365 10,000  Level Potomac TRACON
Sat 08:55:30 AM 39.2500 -76.6333 142° Southeast 300 345 10,000  Level Potomac TRACON
Sat 08:56:25 AM 39.1833 -76.6500 191° South 257 296 10,000  Level Potomac TRACON
Sat 08:57:25 AM 39.1500 -76.7167 237° Southwest 296 341 10,000  Level Potomac TRACON
Sat 08:58:19 AM 39.1833 -76.7667 311° West 282 325 10,000 -105 Level Potomac TRACON
Sat 08:59:19 AM 39.2500 -76.8167 330° Northwest 263 303 9,800 -750 Descending Potomac TRACON
Sat 09:00:19 AM 39.3000 -76.8833 314° West 254 292 8,500 -1,550 Descending Potomac TRACON
Sat 09:01:19 AM 39.3333 -76.9500 303° West 254 292 6,700 -1,750 Descending Potomac TRACON
Sat 09:02:19 AM 39.4000 -76.9333 11° North 269 310 5,000 -1,421 Descending Potomac TRACON
Sat 09:03:13 AM 39.3833 -76.8667 108° East 241 277 4,000 -526 Descending Potomac TRACON
Sat 09:04:13 AM 39.3500 -76.8333 142° Southeast 176 203 4,000 -300 Level Potomac TRACON
Sat 09:05:13 AM 39.3167 -76.8000 142° Southeast 140 161 3,400 -650 Descending Potomac TRACON
Sat 09:06:13 AM 39.2833 -76.7667 142° Southeast 129 148 2,700 -684 Descending Potomac TRACON
Sat 09:07:07 AM 39.2667 -76.7500 142° Southeast 125 144 2,100 -737 Descending Potomac TRACON
Sat 09:08:07 AM 39.2333 -76.7167 142° Southeast 131 151 1,300 -750 Descending Potomac TRACON
Sat 09:09:07 AM 39.2000 -76.7000 159° South 134 154 600 -700 Descending Potomac TRACON
Sat 09:11:00 AM 39.0605 -76.8364 201° Southwest  Level FlightAware Approximate
Sat 09:18:00 AM 38.8519 -77.0377 173° South  Level Estimated

Login

Don't have an account? Register now (free) for customized features, flight alerts, and more!